createdAt,value
2017-08-26T00:00:24.271Z,11.73
2017-08-26T00:02:51.221Z,12.50
2017-08-26T00:05:18.113Z,11.90
2017-08-26T00:07:45.070Z,13.13
2017-08-26T00:10:12.025Z,10.27
2017-08-26T00:12:39.298Z,9.53
2017-08-26T00:15:06.209Z,9.70
2017-08-26T00:17:33.257Z,9.60
2017-08-26T00:20:00.206Z,10.77
2017-08-26T00:22:27.091Z,9.90
2017-08-26T00:24:54.102Z,9.67
2017-08-26T00:27:20.982Z,9.87
2017-08-26T00:29:47.891Z,9.90
2017-08-26T00:32:14.837Z,9.93
2017-08-26T00:34:41.713Z,10.17
2017-08-26T00:37:08.597Z,10.57
2017-08-26T00:39:35.582Z,11.57
2017-08-26T00:42:02.474Z,10.80
2017-08-26T00:44:29.377Z,11.20
2017-08-26T00:46:56.293Z,11.13
2017-08-26T00:49:23.253Z,11.20
2017-08-26T00:51:50.144Z,11.53
2017-08-26T00:54:17.094Z,11.00
2017-08-26T00:56:43.988Z,11.13
2017-08-26T00:59:10.889Z,11.03
2017-08-26T01:01:37.810Z,10.53
2017-08-26T01:04:05.293Z,11.67
2017-08-26T01:06:32.178Z,10.60
2017-08-26T01:08:59.114Z,9.47
2017-08-26T01:11:26.007Z,11.77
2017-08-26T01:13:52.885Z,9.83
2017-08-26T01:16:19.805Z,11.20
2017-08-26T01:18:46.694Z,11.07
2017-08-26T01:21:13.577Z,11.33
2017-08-26T01:23:40.585Z,11.40
2017-08-26T01:26:07.554Z,11.47
2017-08-26T01:28:34.441Z,9.70
2017-08-26T01:31:01.322Z,10.13
2017-08-26T01:33:28.300Z,9.07
2017-08-26T01:35:55.241Z,9.70
2017-08-26T01:38:22.244Z,11.07
2017-08-26T01:40:49.238Z,11.63
2017-08-26T01:43:16.159Z,10.80
2017-08-26T01:45:43.125Z,9.70
2017-08-26T01:48:10.055Z,9.57
2017-08-26T01:50:37.018Z,9.63
2017-08-26T01:53:03.905Z,9.67
2017-08-26T01:55:30.909Z,9.73
2017-08-26T01:57:57.792Z,10.73
2017-08-26T02:00:24.677Z,9.37
2017-08-26T02:02:51.645Z,9.90
2017-08-26T02:05:18.596Z,10.20
2017-08-26T02:07:45.474Z,9.23
2017-08-26T02:10:12.490Z,10.23
2017-08-26T02:12:39.434Z,9.27
2017-08-26T02:15:06.388Z,10.43
2017-08-26T02:17:33.433Z,10.00
2017-08-26T02:20:00.314Z,8.70
2017-08-26T02:22:27.225Z,8.70
2017-08-26T02:24:54.169Z,9.10
2017-08-26T02:27:21.114Z,9.80
2017-08-26T02:29:48.003Z,9.23
2017-08-26T02:32:15.009Z,10.53
2017-08-26T02:34:41.950Z,9.97
2017-08-26T02:37:08.838Z,9.60
2017-08-26T02:39:35.841Z,8.57
2017-08-26T02:42:02.805Z,10.87
2017-08-26T02:44:29.744Z,9.60
2017-08-26T02:46:56.685Z,9.20
2017-08-26T02:49:23.637Z,9.60
2017-08-26T02:51:50.586Z,8.93
2017-08-26T02:54:17.501Z,9.87
2017-08-26T02:56:44.471Z,9.83
2017-08-26T02:59:11.423Z,9.43
2017-08-26T03:01:38.366Z,9.37
2017-08-26T03:04:05.307Z,8.10
2017-08-26T03:06:32.253Z,9.90
2017-08-26T03:08:59.173Z,8.70
2017-08-26T03:11:26.153Z,8.83
2017-08-26T03:13:53.104Z,8.77
2017-08-26T03:16:20.044Z,9.77
2017-08-26T03:18:46.931Z,8.30
2017-08-26T03:21:13.809Z,8.00
2017-08-26T03:23:40.780Z,8.73
2017-08-26T03:26:07.661Z,8.03
2017-08-26T03:28:34.539Z,7.47
2017-08-26T03:31:01.455Z,7.47
2017-08-26T03:33:28.364Z,8.00
2017-08-26T03:35:55.310Z,6.77
2017-08-26T03:38:22.258Z,6.10
2017-08-26T03:40:49.210Z,6.47
2017-08-26T03:43:16.145Z,6.13
2017-08-26T03:45:43.091Z,6.97
2017-08-26T03:48:10.043Z,7.43
2017-08-26T03:50:36.926Z,6.37
2017-08-26T03:53:03.842Z,7.13
2017-08-26T03:55:30.782Z,8.27
2017-08-26T03:57:57.730Z,7.10
2017-08-26T04:00:24.646Z,7.87
2017-08-26T04:02:51.533Z,6.63
2017-08-26T04:05:18.458Z,7.00
2017-08-26T04:07:45.386Z,7.30
2017-08-26T04:10:12.269Z,7.80
2017-08-26T04:12:39.197Z,7.93
2017-08-26T04:15:06.135Z,8.43
2017-08-26T04:17:33.021Z,8.30
2017-08-26T04:19:59.937Z,8.07
2017-08-26T04:22:26.853Z,8.80
2017-08-26T04:24:53.826Z,7.20
2017-08-26T04:27:20.777Z,8.07
2017-08-26T04:29:47.690Z,9.70
2017-08-26T04:32:14.666Z,8.77
2017-08-26T04:34:41.617Z,7.63
2017-08-26T04:37:08.563Z,8.33
2017-08-26T04:39:35.513Z,8.20
2017-08-26T04:42:02.394Z,9.23
2017-08-26T04:44:29.346Z,8.93
2017-08-26T04:46:56.245Z,9.80
2017-08-26T04:49:23.201Z,9.37
2017-08-26T04:51:50.138Z,10.53
2017-08-26T04:54:17.082Z,10.60
2017-08-26T04:56:43.969Z,9.93
2017-08-26T04:59:10.881Z,8.87
2017-08-26T05:01:37.818Z,8.50
2017-08-26T05:04:04.761Z,9.10
2017-08-26T05:06:31.705Z,9.40
2017-08-26T05:08:58.586Z,8.67
2017-08-26T05:11:25.598Z,10.20
2017-08-26T05:13:52.554Z,9.50
2017-08-26T05:16:19.442Z,9.83
2017-08-26T05:18:46.329Z,9.57
2017-08-26T05:21:13.289Z,10.40
2017-08-26T05:23:40.176Z,9.83
2017-08-26T05:26:07.082Z,9.20
2017-08-26T05:28:34.026Z,10.17
2017-08-26T05:31:00.921Z,9.57
2017-08-26T05:33:27.812Z,10.03
2017-08-26T05:35:54.757Z,9.57
2017-08-26T05:38:21.647Z,10.17
2017-08-26T05:40:48.555Z,8.90
2017-08-26T05:43:15.473Z,10.70
2017-08-26T05:45:42.438Z,10.70
2017-08-26T05:48:09.439Z,8.80
2017-08-26T05:50:36.437Z,10.30
2017-08-26T05:53:03.385Z,8.77
2017-08-26T05:55:30.277Z,10.00
2017-08-26T05:57:57.286Z,8.27
2017-08-26T06:00:24.225Z,8.50
2017-08-26T06:02:51.117Z,9.53
2017-08-26T06:05:18.038Z,7.53
2017-08-26T06:07:44.958Z,8.63
2017-08-26T06:10:11.922Z,8.83
2017-08-26T06:12:38.857Z,7.70
2017-08-26T06:15:05.806Z,8.80
2017-08-26T06:17:32.691Z,8.07
2017-08-26T06:19:59.689Z,7.97
2017-08-26T06:22:26.646Z,8.67
2017-08-26T06:24:53.525Z,9.50
2017-08-26T06:27:20.475Z,8.63
2017-08-26T06:29:47.382Z,8.97
2017-08-26T06:32:14.265Z,10.90
2017-08-26T06:34:41.269Z,10.60
2017-08-26T06:37:08.221Z,11.00
2017-08-26T06:39:35.161Z,11.30
2017-08-26T06:42:02.118Z,12.27
2017-08-26T06:44:29.062Z,12.53
2017-08-26T06:46:55.950Z,13.50
2017-08-26T06:49:22.955Z,12.57
2017-08-26T06:51:49.897Z,12.40
2017-08-26T06:54:16.837Z,12.93
2017-08-26T06:56:43.792Z,12.80
2017-08-26T06:59:10.673Z,13.80
2017-08-26T07:01:37.578Z,15.07
2017-08-26T07:04:04.514Z,13.30
2017-08-26T07:06:31.413Z,13.80
2017-08-26T07:08:58.301Z,14.00
2017-08-26T07:11:25.222Z,17.87
2017-08-26T07:13:52.213Z,14.70
2017-08-26T07:16:19.163Z,14.40
2017-08-26T07:18:46.068Z,18.23
2017-08-26T07:21:13.573Z,17.23
2017-08-26T07:23:40.490Z,18.77
2017-08-26T07:26:07.431Z,16.33
2017-08-26T07:28:34.313Z,15.50
2017-08-26T07:31:01.210Z,17.57
2017-08-26T07:33:28.122Z,17.30
2017-08-26T07:35:55.033Z,18.20
2017-08-26T07:38:21.985Z,17.13
2017-08-26T07:40:48.929Z,15.90
2017-08-26T07:43:15.821Z,16.40
2017-08-26T07:45:42.719Z,17.87
2017-08-26T07:48:09.666Z,18.70
2017-08-26T07:50:36.567Z,17.50
2017-08-26T07:53:03.718Z,18.27
2017-08-26T07:55:30.637Z,16.60
2017-08-26T07:57:57.558Z,20.80
2017-08-26T08:00:24.577Z,22.93
2017-08-26T08:02:51.529Z,21.60
2017-08-26T08:05:18.494Z,22.03
2017-08-26T08:07:45.450Z,20.97
2017-08-26T08:10:12.381Z,17.40
2017-08-26T08:12:39.344Z,20.43
2017-08-26T08:15:06.377Z,20.67
2017-08-26T08:17:33.334Z,21.70
2017-08-26T08:20:00.232Z,20.30
2017-08-26T08:22:27.223Z,23.07
2017-08-26T08:24:54.165Z,21.40
2017-08-26T08:27:22.033Z,19.80
2017-08-26T08:29:48.977Z,21.33
2017-08-26T08:32:16.805Z,20.57
2017-08-26T08:34:43.728Z,21.07
2017-08-26T08:37:11.101Z,20.67
2017-08-26T08:39:38.018Z,21.53
2017-08-26T08:42:04.923Z,17.37
2017-08-26T08:44:31.893Z,20.53
2017-08-26T08:46:58.839Z,19.30
2017-08-26T08:49:25.781Z,17.77
2017-08-26T08:51:52.738Z,18.77
2017-08-26T08:54:19.673Z,19.43
2017-08-26T08:56:46.617Z,19.30
2017-08-26T08:59:13.565Z,13.90
2017-08-26T09:01:40.451Z,17.80
2017-08-26T09:04:07.458Z,19.20
2017-08-26T09:06:34.414Z,18.63
2017-08-26T09:09:01.353Z,15.27
2017-08-26T09:11:28.300Z,15.53
2017-08-26T09:13:55.193Z,16.00
2017-08-26T09:16:22.107Z,14.73
2017-08-26T09:18:49.042Z,17.90
2017-08-26T09:21:15.948Z,16.53
2017-08-26T09:23:42.880Z,13.67
2017-08-26T09:26:09.818Z,14.73
2017-08-26T09:28:36.866Z,15.57
2017-08-26T09:31:03.792Z,13.70
2017-08-26T09:33:30.681Z,13.23
2017-08-26T09:35:57.661Z,16.67
2017-08-26T09:38:24.610Z,16.00
2017-08-26T09:40:51.565Z,14.90
2017-08-26T09:43:18.486Z,14.67
2017-08-26T09:45:45.450Z,15.37
2017-08-26T09:48:12.401Z,14.07
2017-08-26T09:50:39.344Z,15.20
2017-08-26T09:53:06.222Z,13.53
2017-08-26T09:55:33.137Z,13.73
2017-08-26T09:58:00.077Z,12.60
2017-08-26T10:00:27.067Z,14.17
2017-08-26T10:02:54.069Z,12.57
2017-08-26T10:05:21.017Z,12.13
2017-08-26T10:07:47.971Z,12.30
2017-08-26T10:10:14.878Z,12.37
2017-08-26T10:12:41.761Z,13.17
2017-08-26T10:15:08.713Z,14.20
2017-08-26T10:17:35.605Z,14.70
2017-08-26T10:20:02.508Z,15.87
2017-08-26T10:22:29.486Z,17.37
2017-08-26T10:24:56.386Z,15.20
2017-08-26T10:27:23.330Z,14.17
2017-08-26T10:29:50.236Z,14.53
2017-08-26T10:32:17.132Z,17.13
2017-08-26T10:34:44.048Z,13.63
2017-08-26T10:37:11.880Z,14.80
2017-08-26T10:39:38.809Z,14.73
2017-08-26T10:42:05.741Z,12.83
2017-08-26T10:44:32.674Z,13.77
2017-08-26T10:47:05.638Z,14.97
2017-08-26T10:49:32.601Z,14.87
2017-08-26T10:51:59.564Z,13.60
2017-08-26T10:54:26.449Z,12.70
2017-08-26T10:56:53.353Z,15.10
2017-08-26T10:59:20.297Z,16.10
2017-08-26T11:01:47.237Z,15.00
2017-08-26T11:04:14.181Z,13.80
2017-08-26T11:06:41.124Z,14.50
2017-08-26T11:09:08.081Z,14.23
2017-08-26T11:11:35.026Z,15.10
2017-08-26T11:14:01.975Z,14.00
2017-08-26T11:16:28.906Z,16.33
2017-08-26T11:18:55.866Z,16.37
2017-08-26T11:21:22.759Z,18.67
2017-08-26T11:23:49.753Z,16.53
2017-08-26T11:26:16.702Z,16.30
2017-08-26T11:28:43.649Z,15.57
2017-08-26T11:31:10.589Z,14.60
2017-08-26T11:33:37.541Z,15.80
2017-08-26T11:36:04.485Z,16.70
2017-08-26T11:38:31.433Z,17.10
2017-08-26T11:40:58.382Z,16.93
2017-08-26T11:43:25.331Z,17.70
2017-08-26T11:45:52.273Z,14.50
2017-08-26T11:48:19.222Z,15.70
2017-08-26T11:50:46.210Z,16.77
2017-08-26T11:53:13.213Z,18.20
2017-08-26T11:55:40.162Z,17.03
2017-08-26T11:58:07.151Z,16.30
2017-08-26T12:00:34.070Z,17.57
2017-08-26T12:03:00.990Z,15.00
2017-08-26T12:05:27.950Z,16.00
2017-08-26T12:07:55.257Z,13.83
2017-08-26T12:10:22.141Z,14.83
2017-08-26T12:12:49.098Z,15.60
2017-08-26T12:15:16.021Z,14.47
2017-08-26T12:17:42.993Z,14.70
2017-08-26T12:20:09.919Z,12.67
2017-08-26T12:22:36.889Z,13.10
2017-08-26T12:25:03.796Z,12.33
2017-08-26T12:27:30.818Z,12.83
2017-08-26T12:29:57.877Z,12.07
2017-08-26T12:32:24.941Z,10.67
2017-08-26T12:34:51.891Z,11.23
2017-08-26T12:37:18.913Z,11.00
2017-08-26T12:39:45.859Z,13.23
2017-08-26T12:42:12.805Z,11.97
2017-08-26T12:44:39.723Z,11.23
2017-08-26T12:47:06.745Z,12.10
2017-08-26T12:49:33.750Z,16.10
2017-08-26T12:52:00.693Z,12.13
2017-08-26T12:54:27.641Z,11.87
2017-08-26T12:56:54.565Z,11.33
2017-08-26T12:59:21.533Z,10.60
2017-08-26T13:01:48.413Z,10.67
2017-08-26T13:04:15.454Z,10.90
2017-08-26T13:06:42.362Z,9.93
2017-08-26T13:09:09.318Z,10.77
2017-08-26T13:11:36.261Z,11.00
2017-08-26T13:14:03.185Z,9.73
2017-08-26T13:16:30.153Z,11.90
2017-08-26T13:18:57.037Z,10.97
2017-08-26T13:21:23.951Z,10.60
2017-08-26T13:23:50.897Z,9.97
2017-08-26T13:26:17.783Z,10.50
2017-08-26T13:28:44.694Z,10.37
2017-08-26T13:31:11.659Z,11.60
2017-08-26T13:33:38.625Z,12.10
2017-08-26T13:36:05.525Z,10.00
2017-08-26T13:38:32.470Z,10.57
2017-08-26T13:40:59.365Z,10.73
2017-08-26T13:43:26.262Z,10.00
2017-08-26T13:45:53.290Z,10.23
2017-08-26T13:48:20.281Z,10.87
2017-08-26T13:50:47.282Z,10.70
2017-08-26T13:53:14.254Z,10.20
2017-08-26T13:55:41.205Z,11.13
2017-08-26T13:58:08.141Z,10.83
2017-08-26T14:00:35.025Z,12.07
2017-08-26T14:03:02.084Z,11.00
2017-08-26T14:05:29.089Z,11.07
2017-08-26T14:07:55.993Z,11.60
2017-08-26T14:10:22.977Z,10.63
2017-08-26T14:12:49.926Z,9.80
2017-08-26T14:15:16.889Z,10.93
2017-08-26T14:17:43.813Z,9.93
2017-08-26T14:20:10.761Z,10.63
2017-08-26T14:22:37.709Z,10.23
2017-08-26T14:25:04.617Z,10.13
2017-08-26T14:27:31.601Z,10.00
2017-08-26T14:29:58.598Z,10.70
2017-08-26T14:32:25.473Z,10.03
2017-08-26T14:34:52.473Z,12.10
2017-08-26T14:37:19.432Z,10.33
2017-08-26T14:39:46.434Z,11.27
2017-08-26T14:42:13.401Z,10.30
2017-08-26T14:44:40.279Z,8.97
2017-08-26T14:47:07.282Z,9.70
2017-08-26T14:49:34.230Z,10.40
2017-08-26T14:52:01.165Z,9.33
2017-08-26T14:54:28.138Z,9.70
2017-08-26T14:56:55.110Z,9.70
2017-08-26T14:59:22.013Z,8.73
2017-08-26T15:01:48.955Z,9.77
2017-08-26T15:04:15.869Z,8.87
2017-08-26T15:06:42.847Z,8.83
2017-08-26T15:09:09.793Z,9.03
2017-08-26T15:11:36.721Z,8.87
2017-08-26T15:14:03.690Z,13.13
2017-08-26T15:16:30.566Z,10.10
2017-08-26T15:18:57.578Z,9.00
2017-08-26T15:21:24.471Z,10.70
2017-08-26T15:23:51.375Z,8.70
2017-08-26T15:26:18.292Z,9.20
2017-08-26T15:28:45.265Z,9.07
2017-08-26T15:31:12.418Z,9.50
2017-08-26T15:33:39.471Z,9.23
2017-08-26T15:36:06.409Z,8.70
2017-08-26T15:38:33.357Z,8.90
2017-08-26T15:41:00.269Z,9.07
2017-08-26T15:43:27.247Z,9.10
2017-08-26T15:45:54.194Z,9.13
2017-08-26T15:48:21.146Z,8.60
2017-08-26T15:50:48.086Z,9.10
2017-08-26T15:53:15.033Z,7.83
2017-08-26T15:55:41.959Z,8.87
2017-08-26T15:58:08.934Z,9.30
2017-08-26T16:00:35.874Z,9.47
2017-08-26T16:03:02.826Z,9.20
2017-08-26T16:05:29.815Z,9.43
2017-08-26T16:07:56.693Z,9.10
2017-08-26T16:10:23.708Z,9.93
2017-08-26T16:12:50.587Z,9.83
2017-08-26T16:15:17.465Z,9.60
2017-08-26T16:17:44.405Z,8.97
2017-08-26T16:20:11.327Z,8.57
2017-08-26T16:22:38.205Z,9.47
2017-08-26T16:25:05.136Z,9.87
2017-08-26T16:27:32.018Z,9.77
2017-08-26T16:29:59.029Z,9.53
2017-08-26T16:32:26.122Z,10.13
2017-08-26T16:34:53.080Z,9.80
2017-08-26T16:37:19.961Z,9.40
2017-08-26T16:39:46.896Z,10.67
2017-08-26T16:42:13.861Z,9.90
2017-08-26T16:44:40.812Z,10.00
2017-08-26T16:47:07.908Z,10.67
2017-08-26T16:49:34.851Z,11.27
2017-08-26T16:52:01.767Z,11.17
2017-08-26T16:54:28.678Z,10.07
2017-08-26T16:56:55.572Z,10.70
2017-08-26T16:59:22.489Z,11.00
2017-08-26T17:01:49.409Z,11.10
2017-08-26T17:04:16.422Z,11.37
2017-08-26T17:06:43.389Z,10.90
2017-08-26T17:09:10.374Z,10.80
2017-08-26T17:11:37.266Z,10.93
2017-08-26T17:14:04.146Z,12.53
2017-08-26T17:16:31.082Z,11.60
2017-08-26T17:18:57.988Z,12.40
2017-08-26T17:21:24.914Z,12.20
2017-08-26T17:23:51.870Z,11.50
2017-08-26T17:26:18.823Z,11.47
2017-08-26T17:28:45.710Z,12.73
2017-08-26T17:31:12.643Z,11.00
2017-08-26T17:33:39.538Z,11.40
2017-08-26T17:36:06.497Z,12.23
2017-08-26T17:38:33.434Z,11.13
2017-08-26T17:41:00.377Z,12.53
2017-08-26T17:43:27.329Z,11.67
2017-08-26T17:45:54.308Z,11.53
2017-08-26T17:48:21.229Z,10.83
2017-08-26T17:50:48.152Z,13.63
2017-08-26T17:53:15.082Z,12.17
2017-08-26T17:55:41.969Z,13.53
2017-08-26T17:58:08.879Z,12.13
2017-08-26T18:00:35.837Z,12.60
2017-08-26T18:03:02.791Z,13.07
2017-08-26T18:05:29.737Z,13.40
2017-08-26T18:07:56.677Z,13.97
2017-08-26T18:10:23.571Z,12.73
2017-08-26T18:12:50.475Z,13.10
2017-08-26T18:15:17.401Z,13.10
2017-08-26T18:17:44.301Z,13.73
2017-08-26T18:20:11.190Z,13.10
2017-08-26T18:22:38.162Z,12.23
2017-08-26T18:25:05.105Z,12.10
2017-08-26T18:27:31.990Z,13.30
2017-08-26T18:29:58.994Z,12.80
2017-08-26T18:32:25.956Z,11.83
2017-08-26T18:34:52.885Z,13.47
2017-08-26T18:37:19.840Z,12.53
2017-08-26T18:39:46.777Z,14.27
2017-08-26T18:42:13.798Z,13.50
2017-08-26T18:44:40.777Z,13.30
2017-08-26T18:47:07.668Z,14.57
2017-08-26T18:49:34.582Z,14.13
2017-08-26T18:52:01.557Z,13.30
2017-08-26T18:54:28.566Z,15.73
2017-08-26T18:56:55.440Z,14.70
2017-08-26T18:59:22.409Z,15.63
2017-08-26T19:01:49.317Z,13.87
2017-08-26T19:04:16.247Z,14.20
2017-08-26T19:06:43.197Z,14.90
2017-08-26T19:09:10.097Z,14.97
2017-08-26T19:11:37.077Z,14.63
2017-08-26T19:14:04.012Z,14.27
2017-08-26T19:16:30.973Z,15.70
2017-08-26T19:18:57.926Z,14.57
2017-08-26T19:21:24.989Z,15.20
2017-08-26T19:23:51.913Z,13.90
2017-08-26T19:26:18.870Z,14.57
2017-08-26T19:28:45.834Z,14.60
2017-08-26T19:31:13.576Z,13.67
2017-08-26T19:33:40.461Z,15.07
2017-08-26T19:36:07.778Z,14.03
2017-08-26T19:38:34.656Z,14.80
2017-08-26T19:41:01.565Z,12.90
2017-08-26T19:43:28.524Z,13.23
2017-08-26T19:45:55.480Z,14.40
2017-08-26T19:48:22.410Z,13.37
2017-08-26T19:50:49.365Z,13.60
2017-08-26T19:53:16.250Z,13.30
2017-08-26T19:55:43.145Z,12.63
2017-08-26T19:58:10.097Z,11.60
2017-08-26T20:00:37.045Z,12.90
2017-08-26T20:03:03.934Z,13.17
2017-08-26T20:05:30.866Z,12.63
2017-08-26T20:07:57.789Z,15.27
2017-08-26T20:10:24.737Z,15.47
2017-08-26T20:12:51.669Z,16.43
2017-08-26T20:15:18.590Z,18.53
2017-08-26T20:17:45.563Z,16.57
2017-08-26T20:20:12.510Z,17.67
2017-08-26T20:22:39.397Z,16.90
2017-08-26T20:25:06.301Z,17.70
2017-08-26T20:27:33.280Z,14.43
2017-08-26T20:30:00.199Z,14.83
2017-08-26T20:32:27.141Z,16.73
2017-08-26T20:34:54.093Z,14.00
2017-08-26T20:37:21.075Z,14.87
2017-08-26T20:39:47.958Z,15.80
2017-08-26T20:42:14.930Z,13.77
2017-08-26T20:44:41.823Z,15.33
2017-08-26T20:47:08.720Z,15.10
2017-08-26T20:49:35.774Z,14.63
2017-08-26T20:52:02.663Z,14.17
2017-08-26T20:54:29.541Z,16.10
2017-08-26T20:56:56.497Z,15.63
2017-08-26T20:59:23.378Z,14.40
2017-08-26T21:01:50.261Z,16.27
2017-08-26T21:04:17.229Z,17.40
2017-08-26T21:06:44.187Z,16.37
2017-08-26T21:09:11.073Z,15.60
2017-08-26T21:11:37.981Z,15.47
2017-08-26T21:14:04.917Z,16.60
2017-08-26T21:16:31.814Z,15.87
2017-08-26T21:18:58.814Z,17.50
2017-08-26T21:21:25.802Z,17.87
2017-08-26T21:23:52.685Z,16.43
2017-08-26T21:26:19.619Z,17.83
2017-08-26T21:28:46.600Z,16.17
2017-08-26T21:31:13.491Z,18.00
2017-08-26T21:33:40.485Z,16.67
2017-08-26T21:36:07.374Z,17.90
2017-08-26T21:38:34.283Z,17.13
2017-08-26T21:41:01.241Z,17.87
2017-08-26T21:43:28.179Z,19.10
2017-08-26T21:45:55.061Z,17.17
2017-08-26T21:48:21.971Z,18.17
2017-08-26T21:50:48.913Z,18.43
2017-08-26T21:53:15.861Z,18.00
2017-08-26T21:55:42.806Z,18.43
2017-08-26T21:58:09.750Z,21.07
2017-08-26T22:00:36.693Z,17.80
2017-08-26T22:03:03.587Z,17.57
2017-08-26T22:05:30.601Z,18.40
2017-08-26T22:07:57.481Z,16.70
2017-08-26T22:10:24.386Z,19.10
2017-08-26T22:12:51.322Z,18.27
2017-08-26T22:15:18.205Z,18.20
2017-08-26T22:17:45.117Z,18.73
2017-08-26T22:20:12.049Z,19.00
2017-08-26T22:22:39.011Z,18.10
2017-08-26T22:25:05.953Z,18.67
2017-08-26T22:27:32.897Z,21.27
2017-08-26T22:29:59.778Z,23.70
2017-08-26T22:32:26.678Z,22.57
2017-08-26T22:34:53.643Z,22.20
2017-08-26T22:37:20.589Z,21.67
2017-08-26T22:39:47.533Z,21.30
2017-08-26T22:42:14.481Z,19.00
2017-08-26T22:44:41.428Z,19.63
2017-08-26T22:47:08.373Z,22.13
2017-08-26T22:49:35.324Z,20.97
2017-08-26T22:52:02.213Z,21.17
2017-08-26T22:54:29.112Z,21.70
2017-08-26T22:56:56.050Z,22.00
2017-08-26T22:59:23.046Z,20.10
2017-08-26T23:01:49.950Z,22.90
2017-08-26T23:04:16.873Z,22.27
2017-08-26T23:06:43.843Z,22.67
2017-08-26T23:09:10.787Z,25.23
2017-08-26T23:11:37.738Z,21.97
2017-08-26T23:14:04.681Z,23.60
2017-08-26T23:16:31.633Z,23.00
2017-08-26T23:18:58.549Z,24.20
2017-08-26T23:21:25.450Z,23.57
2017-08-26T23:23:52.366Z,25.10
2017-08-26T23:26:19.310Z,25.70
2017-08-26T23:28:46.197Z,24.97
2017-08-26T23:31:13.101Z,23.57
2017-08-26T23:33:40.025Z,22.63
2017-08-26T23:36:06.998Z,25.30
2017-08-26T23:38:33.938Z,23.80
2017-08-26T23:41:00.901Z,24.70
2017-08-26T23:43:27.785Z,24.00
2017-08-26T23:45:54.677Z,23.73
2017-08-26T23:48:21.610Z,23.67
2017-08-26T23:50:48.665Z,22.50
2017-08-26T23:53:15.552Z,23.77
2017-08-26T23:55:42.505Z,23.40
2017-08-26T23:58:09.413Z,26.30
